createdAt,value
2019-05-25T00:00:37.158Z,7.17
2019-05-25T00:03:05.621Z,8.08
2019-05-25T00:05:33.934Z,8.40
2019-05-25T00:08:02.170Z,9.13
2019-05-25T00:10:30.617Z,8.83
2019-05-25T00:12:58.851Z,7.92
2019-05-25T00:15:27.158Z,8.50
2019-05-25T00:17:55.488Z,7.97
2019-05-25T00:20:23.745Z,8.38
2019-05-25T00:22:53.224Z,8.18
2019-05-25T00:25:21.514Z,7.83
2019-05-25T00:27:49.810Z,7.87
2019-05-25T00:30:18.274Z,7.58
2019-05-25T00:32:46.634Z,7.95
2019-05-25T00:35:15.009Z,8.68
2019-05-25T00:37:43.315Z,8.20
2019-05-25T00:40:11.662Z,8.13
2019-05-25T00:42:39.988Z,8.20
2019-05-25T00:45:08.366Z,8.03
2019-05-25T00:47:36.721Z,7.22
2019-05-25T00:50:06.556Z,7.47
2019-05-25T00:52:34.849Z,7.65
2019-05-25T00:55:04.445Z,7.30
2019-05-25T00:57:32.787Z,7.42
2019-05-25T01:00:01.099Z,6.90
2019-05-25T01:02:31.309Z,7.47
2019-05-25T01:04:59.604Z,8.00
2019-05-25T01:07:27.899Z,7.87
2019-05-25T01:09:56.243Z,7.30
2019-05-25T01:12:24.595Z,6.03
2019-05-25T01:14:53.118Z,6.62
2019-05-25T01:17:21.362Z,7.22
2019-05-25T01:19:49.772Z,6.50
2019-05-25T01:22:18.129Z,6.95
2019-05-25T01:24:46.577Z,6.17
2019-05-25T01:27:14.777Z,6.20
2019-05-25T01:29:43.148Z,7.30
2019-05-25T01:32:11.376Z,7.08
2019-05-25T01:34:39.701Z,7.62
2019-05-25T01:37:07.995Z,6.67
2019-05-25T01:39:36.472Z,8.03
2019-05-25T01:42:04.775Z,7.22
2019-05-25T01:44:33.063Z,6.97
2019-05-25T01:47:01.460Z,8.05
2019-05-25T01:49:29.770Z,8.03
2019-05-25T01:51:58.079Z,7.87
2019-05-25T01:54:26.423Z,8.20
2019-05-25T01:56:54.901Z,7.85
2019-05-25T01:59:23.272Z,8.25
2019-05-25T02:01:51.663Z,8.58
2019-05-25T02:04:20.023Z,8.25
2019-05-25T02:06:48.361Z,9.13
2019-05-25T02:09:16.689Z,9.00
2019-05-25T02:11:44.998Z,8.35
2019-05-25T02:14:13.321Z,8.70
2019-05-25T02:16:41.850Z,8.90
2019-05-25T02:19:10.196Z,7.30
2019-05-25T02:21:38.607Z,7.08
2019-05-25T02:24:06.971Z,8.13
2019-05-25T02:26:35.310Z,9.25
2019-05-25T02:29:03.730Z,7.47
2019-05-25T02:31:32.030Z,7.92
2019-05-25T02:34:00.293Z,8.08
2019-05-25T02:36:28.587Z,7.22
2019-05-25T02:38:57.963Z,9.30
2019-05-25T02:41:26.394Z,8.50
2019-05-25T02:43:54.747Z,8.85
2019-05-25T02:46:23.029Z,8.93
2019-05-25T02:48:51.427Z,9.50
2019-05-25T02:51:19.755Z,7.22
2019-05-25T02:53:48.088Z,7.87
2019-05-25T02:56:16.370Z,7.15
2019-05-25T02:58:44.670Z,7.78
2019-05-25T03:01:14.206Z,8.38
2019-05-25T03:03:42.454Z,6.95
2019-05-25T03:06:10.853Z,8.48
2019-05-25T03:08:39.825Z,8.00
2019-05-25T03:11:08.527Z,9.35
2019-05-25T03:13:36.816Z,9.65
2019-05-25T03:16:05.146Z,9.55
2019-05-25T03:18:33.460Z,8.00
2019-05-25T03:21:01.781Z,8.75
2019-05-25T03:23:30.084Z,7.97
2019-05-25T03:25:58.347Z,9.28
2019-05-25T03:28:26.749Z,8.08
2019-05-25T03:30:55.132Z,8.95
2019-05-25T03:33:23.406Z,8.10
2019-05-25T03:35:51.790Z,7.35
2019-05-25T03:38:19.988Z,8.43
2019-05-25T03:40:49.416Z,7.37
2019-05-25T03:43:17.663Z,7.20
2019-05-25T03:45:45.966Z,6.92
2019-05-25T03:48:14.279Z,5.47
2019-05-25T03:50:42.569Z,6.45
2019-05-25T03:53:10.972Z,7.22
2019-05-25T03:55:39.340Z,6.80
2019-05-25T03:58:07.706Z,7.08
2019-05-25T04:00:37.641Z,7.33
2019-05-25T04:03:06.285Z,7.35
2019-05-25T04:05:35.002Z,7.28
2019-05-25T04:08:03.484Z,7.87
2019-05-25T04:10:31.960Z,7.83
2019-05-25T04:13:00.433Z,7.22
2019-05-25T04:15:28.814Z,7.37
2019-05-25T04:17:58.344Z,7.65
2019-05-25T04:20:26.700Z,6.62
2019-05-25T04:22:55.293Z,6.60
2019-05-25T04:25:23.620Z,6.60
2019-05-25T04:27:51.946Z,7.72
2019-05-25T04:30:20.659Z,6.92
2019-05-25T04:32:49.121Z,6.15
2019-05-25T04:35:17.398Z,5.58
2019-05-25T04:37:45.822Z,6.12
2019-05-25T04:40:14.358Z,7.00
2019-05-25T04:42:42.776Z,6.62
2019-05-25T04:45:11.422Z,6.70
2019-05-25T04:47:39.696Z,6.15
2019-05-25T04:50:08.581Z,5.72
2019-05-25T04:52:40.744Z,6.80
2019-05-25T04:55:07.127Z,7.00
2019-05-25T04:57:35.549Z,6.40
2019-05-25T05:00:05.577Z,8.03
2019-05-25T05:02:34.047Z,6.17
2019-05-25T05:05:02.467Z,6.08
2019-05-25T05:07:30.768Z,5.90
2019-05-25T05:10:02.804Z,6.03
2019-05-25T05:12:29.125Z,6.20
2019-05-25T05:14:58.516Z,4.95
2019-05-25T05:17:26.782Z,5.50
2019-05-25T05:19:55.151Z,5.75
2019-05-25T05:22:23.426Z,5.33
2019-05-25T05:24:51.786Z,5.87
2019-05-25T05:27:20.184Z,6.08
2019-05-25T05:29:48.661Z,5.55
2019-05-25T05:32:27.170Z,5.62
2019-05-25T05:34:47.160Z,6.10
2019-05-25T05:37:15.538Z,5.70
2019-05-25T05:39:44.323Z,6.08
2019-05-25T05:42:13.267Z,6.08
2019-05-25T05:44:42.094Z,6.33
2019-05-25T05:47:11.902Z,7.12
2019-05-25T05:49:40.270Z,6.45
2019-05-25T05:52:08.685Z,7.65
2019-05-25T05:54:38.496Z,7.62
2019-05-25T05:57:12.272Z,7.60
2019-05-25T05:59:36.720Z,8.88
2019-05-25T06:02:05.043Z,9.88
2019-05-25T06:04:33.319Z,11.03
2019-05-25T06:07:01.834Z,12.50
2019-05-25T06:09:30.292Z,12.68
2019-05-25T06:11:58.803Z,12.28
2019-05-25T06:14:27.271Z,13.40
2019-05-25T06:16:55.853Z,12.33
2019-05-25T06:19:24.247Z,12.68
2019-05-25T06:21:52.588Z,11.93
2019-05-25T06:24:20.896Z,12.15
2019-05-25T06:26:49.308Z,11.53
2019-05-25T06:29:17.669Z,13.70
2019-05-25T06:31:46.201Z,11.55
2019-05-25T06:34:14.674Z,10.93
2019-05-25T06:36:43.167Z,10.63
2019-05-25T06:39:11.675Z,11.20
2019-05-25T06:41:40.009Z,10.15
2019-05-25T06:44:08.445Z,11.30
2019-05-25T06:46:39.648Z,11.65
2019-05-25T06:49:06.914Z,11.33
2019-05-25T06:51:35.361Z,11.25
2019-05-25T06:54:04.291Z,11.18
2019-05-25T06:56:32.765Z,11.78
2019-05-25T06:59:01.312Z,11.25
2019-05-25T07:01:29.737Z,10.90
2019-05-25T07:03:58.217Z,11.25
2019-05-25T07:06:26.706Z,9.73
2019-05-25T07:08:55.189Z,11.63
2019-05-25T07:11:23.672Z,11.05
2019-05-25T07:13:52.149Z,10.23
2019-05-25T07:16:20.538Z,9.23
2019-05-25T07:18:48.938Z,8.88
2019-05-25T07:21:17.400Z,9.65
2019-05-25T07:23:45.856Z,10.32
2019-05-25T07:26:14.259Z,9.53
2019-05-25T07:28:42.697Z,9.65
2019-05-25T07:31:11.187Z,10.90
2019-05-25T07:33:39.640Z,10.00
2019-05-25T07:36:08.192Z,9.60
2019-05-25T07:38:36.799Z,10.08
2019-05-25T07:41:05.211Z,10.65
2019-05-25T07:43:33.555Z,10.60
2019-05-25T07:46:01.881Z,10.72
2019-05-25T07:48:30.325Z,10.45
2019-05-25T07:50:58.960Z,11.85
2019-05-25T07:53:27.481Z,10.23
2019-05-25T07:55:55.833Z,11.28
2019-05-25T07:58:24.230Z,10.30
2019-05-25T08:00:52.723Z,9.83
2019-05-25T08:03:21.209Z,10.08
2019-05-25T08:05:49.585Z,9.13
2019-05-25T08:08:17.991Z,10.15
2019-05-25T08:10:46.321Z,9.43
2019-05-25T08:13:14.723Z,10.10
2019-05-25T08:15:43.094Z,10.23
2019-05-25T08:18:11.407Z,9.30
2019-05-25T08:20:39.696Z,8.98
2019-05-25T08:23:08.014Z,8.53
2019-05-25T08:25:36.316Z,8.40
2019-05-25T08:28:04.637Z,8.63
2019-05-25T08:30:32.997Z,8.80
2019-05-25T08:33:02.355Z,9.45
2019-05-25T08:35:30.665Z,9.58
2019-05-25T08:37:58.860Z,9.03
2019-05-25T08:40:27.184Z,9.18
2019-05-25T08:42:55.548Z,7.90
2019-05-25T08:45:25.912Z,8.65
2019-05-25T08:47:56.947Z,8.88
2019-05-25T08:50:37.106Z,10.15
2019-05-25T08:52:53.807Z,9.83
2019-05-25T08:55:22.172Z,10.00
2019-05-25T08:57:50.615Z,9.73
2019-05-25T09:00:19.060Z,9.53
2019-05-25T09:02:47.453Z,9.05
2019-05-25T09:05:15.992Z,10.13
2019-05-25T09:07:44.354Z,9.78
2019-05-25T09:10:12.847Z,9.88
2019-05-25T09:12:41.052Z,10.40
2019-05-25T09:15:09.402Z,10.30
2019-05-25T09:17:37.751Z,9.55
2019-05-25T09:20:07.068Z,10.78
2019-05-25T09:22:35.338Z,9.68
2019-05-25T09:25:05.377Z,9.90
2019-05-25T09:27:33.753Z,10.23
2019-05-25T09:30:02.122Z,9.80
2019-05-25T09:32:30.563Z,10.20
2019-05-25T09:34:59.908Z,9.70
2019-05-25T09:37:28.234Z,11.30
2019-05-25T09:39:56.602Z,9.50
2019-05-25T09:42:24.918Z,8.90
2019-05-25T09:44:53.231Z,8.90
2019-05-25T09:47:21.570Z,9.00
2019-05-25T09:49:49.835Z,9.40
2019-05-25T09:52:18.169Z,8.90
2019-05-25T09:54:46.457Z,8.85
2019-05-25T09:57:14.836Z,8.05
2019-05-25T09:59:43.103Z,8.30
2019-05-25T10:02:11.498Z,8.30
2019-05-25T10:04:39.788Z,7.92
2019-05-25T10:07:08.284Z,8.38
2019-05-25T10:09:40.041Z,9.13
2019-05-25T10:12:07.672Z,9.35
2019-05-25T10:14:36.049Z,8.68
2019-05-25T10:17:04.331Z,8.48
2019-05-25T10:19:32.660Z,9.73
2019-05-25T10:22:00.907Z,9.05
2019-05-25T10:24:29.210Z,9.08
2019-05-25T10:26:57.529Z,8.98
2019-05-25T10:29:36.680Z,8.98
2019-05-25T10:31:55.755Z,8.90
2019-05-25T10:34:24.047Z,8.58
2019-05-25T10:36:52.338Z,9.68
2019-05-25T10:39:20.661Z,9.63
2019-05-25T10:41:49.031Z,8.98
2019-05-25T10:44:17.356Z,9.35
2019-05-25T10:46:45.796Z,9.63
2019-05-25T10:49:14.181Z,10.10
2019-05-25T10:51:42.747Z,9.53
2019-05-25T10:54:11.168Z,9.60
2019-05-25T10:56:39.536Z,9.55
2019-05-25T10:59:08.001Z,9.33
2019-05-25T11:01:36.864Z,9.50
2019-05-25T11:04:05.348Z,10.15
2019-05-25T11:06:34.937Z,9.63
2019-05-25T11:09:04.581Z,10.40
2019-05-25T11:11:33.294Z,10.93
2019-05-25T11:14:01.838Z,10.23
2019-05-25T11:16:30.402Z,11.60
2019-05-25T11:18:58.740Z,11.15
2019-05-25T11:21:27.110Z,10.32
2019-05-25T11:23:55.504Z,11.45
2019-05-25T11:26:23.895Z,11.75
2019-05-25T11:28:52.258Z,11.15
2019-05-25T11:31:20.640Z,11.50
2019-05-25T11:33:49.165Z,11.12
2019-05-25T11:36:17.622Z,11.12
2019-05-25T11:38:46.163Z,11.65
2019-05-25T11:41:14.551Z,11.93
2019-05-25T11:43:42.921Z,11.88
2019-05-25T11:46:11.289Z,11.48
2019-05-25T11:48:39.675Z,10.88
2019-05-25T11:51:08.143Z,11.00
2019-05-25T11:53:36.619Z,10.90
2019-05-25T11:56:04.994Z,10.35
2019-05-25T11:58:46.620Z,10.80
2019-05-25T12:01:04.469Z,10.18
2019-05-25T12:03:32.888Z,10.08
2019-05-25T12:06:01.121Z,10.13
2019-05-25T12:08:29.604Z,10.25
2019-05-25T12:10:57.975Z,9.93
2019-05-25T12:13:26.356Z,10.50
2019-05-25T12:15:54.755Z,9.08
2019-05-25T12:18:23.206Z,10.10
2019-05-25T12:20:51.621Z,9.43
2019-05-25T12:23:19.917Z,11.63
2019-05-25T12:25:48.405Z,11.90
2019-05-25T12:28:16.892Z,10.38
2019-05-25T12:30:45.201Z,9.63
2019-05-25T12:33:13.609Z,9.10
2019-05-25T12:35:45.039Z,9.50
2019-05-25T12:38:11.824Z,9.03
2019-05-25T12:40:52.721Z,9.08
2019-05-25T12:43:10.197Z,9.93
2019-05-25T12:45:41.873Z,10.32
2019-05-25T12:48:08.594Z,9.75
2019-05-25T12:50:37.046Z,8.25
2019-05-25T12:53:05.472Z,8.40
2019-05-25T12:55:33.862Z,7.87
2019-05-25T12:58:02.253Z,7.95
2019-05-25T13:00:30.704Z,8.80
2019-05-25T13:02:59.038Z,8.45
2019-05-25T13:05:34.170Z,8.00
2019-05-25T13:07:57.408Z,7.40
2019-05-25T13:10:25.755Z,7.85
2019-05-25T13:12:54.187Z,9.05
2019-05-25T13:15:22.665Z,8.35
2019-05-25T13:17:51.114Z,7.78
2019-05-25T13:20:19.557Z,7.20
2019-05-25T13:22:47.911Z,7.12
2019-05-25T13:25:16.525Z,8.18
2019-05-25T13:27:44.952Z,7.60
2019-05-25T13:30:13.429Z,7.75
2019-05-25T13:32:41.893Z,7.60
2019-05-25T13:35:10.615Z,7.75
2019-05-25T13:37:39.117Z,6.95
2019-05-25T13:40:07.813Z,6.45
2019-05-25T13:42:36.308Z,8.05
2019-05-25T13:45:06.919Z,6.78
2019-05-25T13:47:35.182Z,7.28
2019-05-25T13:50:04.982Z,6.28
2019-05-25T13:52:33.401Z,6.20
2019-05-25T13:55:01.901Z,6.17
2019-05-25T13:57:30.350Z,7.00
2019-05-25T13:59:58.662Z,7.12
2019-05-25T14:02:27.130Z,7.00
2019-05-25T14:04:55.515Z,7.58
2019-05-25T14:07:23.802Z,7.65
2019-05-25T14:09:52.349Z,8.50
2019-05-25T14:12:21.105Z,8.68
2019-05-25T14:14:49.594Z,8.25
2019-05-25T14:17:17.935Z,8.50
2019-05-25T14:19:46.143Z,8.13
2019-05-25T14:22:14.609Z,7.60
2019-05-25T14:24:43.009Z,8.28
2019-05-25T14:27:11.369Z,7.95
2019-05-25T14:29:39.717Z,8.00
2019-05-25T14:32:08.224Z,7.95
2019-05-25T14:34:36.750Z,7.62
2019-05-25T14:37:05.149Z,8.33
2019-05-25T14:39:33.643Z,8.08
2019-05-25T14:42:01.987Z,8.35
2019-05-25T14:44:30.373Z,7.72
2019-05-25T14:46:58.737Z,7.55
2019-05-25T14:49:27.050Z,7.15
2019-05-25T14:51:56.504Z,8.05
2019-05-25T14:54:25.055Z,8.20
2019-05-25T14:56:53.361Z,7.90
2019-05-25T14:59:21.807Z,7.55
2019-05-25T15:02:01.935Z,7.42
2019-05-25T15:04:21.406Z,8.65
2019-05-25T15:06:49.746Z,9.58
2019-05-25T15:09:18.252Z,7.97
2019-05-25T15:11:46.539Z,7.60
2019-05-25T15:14:14.768Z,8.75
2019-05-25T15:16:43.021Z,7.12
2019-05-25T15:19:11.271Z,9.35
2019-05-25T15:21:39.800Z,6.53
2019-05-25T15:24:08.175Z,7.03
2019-05-25T15:26:37.502Z,6.70
2019-05-25T15:29:05.867Z,7.00
2019-05-25T15:31:34.714Z,6.30
2019-05-25T15:34:03.657Z,5.90
2019-05-25T15:36:32.045Z,6.03
2019-05-25T15:39:00.529Z,7.15
2019-05-25T15:41:29.009Z,5.83
2019-05-25T15:43:57.299Z,5.42
2019-05-25T15:46:26.071Z,6.83
2019-05-25T15:48:54.536Z,6.55
2019-05-25T15:51:22.905Z,6.35
2019-05-25T15:53:51.491Z,6.30
2019-05-25T15:56:19.979Z,6.55
2019-05-25T15:58:48.331Z,6.22
2019-05-25T16:01:16.704Z,5.10
2019-05-25T16:03:45.101Z,6.00
2019-05-25T16:06:13.465Z,5.05
2019-05-25T16:08:41.837Z,7.05
2019-05-25T16:11:10.702Z,6.65
2019-05-25T16:13:39.198Z,6.28
2019-05-25T16:16:07.670Z,7.05
2019-05-25T16:18:38.753Z,7.28
2019-05-25T16:21:07.253Z,6.70
2019-05-25T16:23:35.667Z,7.10
2019-05-25T16:26:04.056Z,8.88
2019-05-25T16:28:32.355Z,7.87
2019-05-25T16:31:00.656Z,7.83
2019-05-25T16:33:29.051Z,7.85
2019-05-25T16:35:58.141Z,8.03
2019-05-25T16:38:53.386Z,7.25
2019-05-25T16:41:21.874Z,6.53
2019-05-25T16:43:50.261Z,7.15
2019-05-25T16:46:18.570Z,6.58
2019-05-25T16:48:46.912Z,6.78
2019-05-25T16:51:15.243Z,5.97
2019-05-25T16:53:43.565Z,6.00
2019-05-25T16:56:11.849Z,6.95
2019-05-25T16:58:40.150Z,6.85
2019-05-25T17:01:08.498Z,6.30
2019-05-25T17:03:36.788Z,6.00
2019-05-25T17:06:05.176Z,6.00
2019-05-25T17:08:33.608Z,5.60
2019-05-25T17:11:01.887Z,6.33
2019-05-25T17:13:30.190Z,5.70
2019-05-25T17:15:58.500Z,6.30
2019-05-25T17:18:26.829Z,4.80
2019-05-25T17:20:55.160Z,5.58
2019-05-25T17:23:23.526Z,6.80
2019-05-25T17:25:51.961Z,6.70
2019-05-25T17:28:20.332Z,6.12
2019-05-25T17:30:49.775Z,6.87
2019-05-25T17:33:18.164Z,6.92
2019-05-25T17:35:46.579Z,7.55
2019-05-25T17:38:14.902Z,7.78
2019-05-25T17:40:43.352Z,7.75
2019-05-25T17:43:11.721Z,7.00
2019-05-25T17:45:40.032Z,7.25
2019-05-25T17:48:08.326Z,7.03
2019-05-25T17:50:36.695Z,7.45
2019-05-25T17:53:05.204Z,8.43
2019-05-25T17:55:33.513Z,8.48
2019-05-25T17:58:01.948Z,9.08
2019-05-25T18:00:40.781Z,8.45
2019-05-25T18:03:09.176Z,8.90
2019-05-25T18:05:37.742Z,9.68
2019-05-25T18:08:06.416Z,9.95
2019-05-25T18:10:51.139Z,10.98
2019-05-25T18:13:05.713Z,12.30
2019-05-25T18:15:35.013Z,13.08
2019-05-25T18:18:03.912Z,11.28
2019-05-25T18:20:33.339Z,12.30
2019-05-25T18:23:01.695Z,11.45
2019-05-25T18:25:30.110Z,12.33
2019-05-25T18:27:58.372Z,12.68
2019-05-25T18:30:26.841Z,13.50
2019-05-25T18:32:55.213Z,14.07
2019-05-25T18:35:23.528Z,14.47
2019-05-25T18:37:51.863Z,15.03
2019-05-25T18:40:20.252Z,15.18
2019-05-25T18:42:48.789Z,14.95
2019-05-25T18:45:17.329Z,15.10
2019-05-25T18:47:45.610Z,14.65
2019-05-25T18:50:15.412Z,15.78
2019-05-25T18:52:43.909Z,15.45
2019-05-25T18:55:12.459Z,16.17
2019-05-25T18:57:40.957Z,15.98
2019-05-25T19:00:10.849Z,16.00
2019-05-25T19:02:39.187Z,16.82
2019-05-25T19:05:07.750Z,16.90
2019-05-25T19:07:36.078Z,18.73
2019-05-25T19:10:05.811Z,19.25
2019-05-25T19:12:34.182Z,19.25
2019-05-25T19:15:02.582Z,22.10
2019-05-25T19:17:31.054Z,17.77
2019-05-25T19:19:59.520Z,17.87
2019-05-25T19:22:28.890Z,16.23
2019-05-25T19:24:57.525Z,15.15
2019-05-25T19:27:25.877Z,15.28
2019-05-25T19:29:54.378Z,14.90
2019-05-25T19:32:22.740Z,16.65
2019-05-25T19:34:59.434Z,17.15
2019-05-25T19:37:21.172Z,16.67
2019-05-25T19:39:49.447Z,17.15
2019-05-25T19:42:17.808Z,17.87
2019-05-25T19:44:46.103Z,17.20
2019-05-25T19:47:14.496Z,17.80
2019-05-25T19:49:42.788Z,18.80
2019-05-25T19:52:11.219Z,18.45
2019-05-25T19:54:39.709Z,17.87
2019-05-25T19:57:08.114Z,17.92
2019-05-25T19:59:36.402Z,18.15
2019-05-25T20:02:04.829Z,17.35
2019-05-25T20:04:33.200Z,16.42
2019-05-25T20:07:01.653Z,17.20
2019-05-25T20:09:30.064Z,15.60
2019-05-25T20:11:58.419Z,17.48
2019-05-25T20:14:26.744Z,15.70
2019-05-25T20:16:55.111Z,15.40
2019-05-25T20:19:23.487Z,15.13
2019-05-25T20:21:51.802Z,17.27
2019-05-25T20:24:20.207Z,15.10
2019-05-25T20:26:48.563Z,14.53
2019-05-25T20:29:16.815Z,14.73
2019-05-25T20:31:45.117Z,16.02
2019-05-25T20:34:13.530Z,13.40
2019-05-25T20:36:41.924Z,13.22
2019-05-25T20:39:10.317Z,14.65
2019-05-25T20:41:38.688Z,14.07
2019-05-25T20:44:07.025Z,14.10
2019-05-25T20:46:35.458Z,16.32
2019-05-25T20:49:03.952Z,15.25
2019-05-25T20:51:32.291Z,15.35
2019-05-25T20:54:00.657Z,17.15
2019-05-25T20:56:28.989Z,15.65
2019-05-25T20:58:57.302Z,16.32
2019-05-25T21:01:25.731Z,16.67
2019-05-25T21:03:54.089Z,14.73
2019-05-25T21:06:22.462Z,15.32
2019-05-25T21:08:50.960Z,13.30
2019-05-25T21:11:19.259Z,16.45
2019-05-25T21:13:47.720Z,17.12
2019-05-25T21:16:16.100Z,17.40
2019-05-25T21:18:44.348Z,17.25
2019-05-25T21:21:12.729Z,15.85
2019-05-25T21:23:41.142Z,15.95
2019-05-25T21:26:09.539Z,16.23
2019-05-25T21:28:37.849Z,18.92
2019-05-25T21:31:06.272Z,16.75
2019-05-25T21:33:36.593Z,15.60
2019-05-25T21:36:08.839Z,16.62
2019-05-25T21:38:34.654Z,18.23
2019-05-25T21:41:02.977Z,18.20
2019-05-25T21:43:31.382Z,19.98
2019-05-25T21:45:59.699Z,19.40
2019-05-25T21:48:28.077Z,17.50
2019-05-25T21:50:56.425Z,16.27
2019-05-25T21:53:24.757Z,17.45
2019-05-25T21:55:53.112Z,15.85
2019-05-25T21:58:21.343Z,17.62
2019-05-25T22:00:49.780Z,16.35
2019-05-25T22:03:18.215Z,16.55
2019-05-25T22:05:46.606Z,17.30
2019-05-25T22:08:15.019Z,17.80
2019-05-25T22:10:43.285Z,18.48
2019-05-25T22:13:27.451Z,17.35
2019-05-25T22:15:41.558Z,16.05
2019-05-25T22:18:09.971Z,17.10
2019-05-25T22:20:40.073Z,17.25
2019-05-25T22:23:08.246Z,17.07
2019-05-25T22:25:36.549Z,17.65
2019-05-25T22:28:05.001Z,16.20
2019-05-25T22:30:33.314Z,16.17
2019-05-25T22:33:01.641Z,16.37
2019-05-25T22:35:30.143Z,14.75
2019-05-25T22:37:58.620Z,14.35
2019-05-25T22:40:27.113Z,14.58
2019-05-25T22:42:55.396Z,14.50
2019-05-25T22:45:23.711Z,13.22
2019-05-25T22:47:52.250Z,14.90
2019-05-25T22:50:22.426Z,14.28
2019-05-25T22:52:50.838Z,14.68
2019-05-25T22:55:19.199Z,14.28
2019-05-25T22:57:47.572Z,14.80
2019-05-25T23:00:16.052Z,14.00
2019-05-25T23:02:44.564Z,14.07
2019-05-25T23:05:12.927Z,13.83
2019-05-25T23:07:41.328Z,14.78
2019-05-25T23:10:10.114Z,14.47
2019-05-25T23:12:38.507Z,14.33
2019-05-25T23:15:07.032Z,14.13
2019-05-25T23:17:35.417Z,13.18
2019-05-25T23:20:05.023Z,13.48
2019-05-25T23:22:33.426Z,13.70
2019-05-25T23:25:01.782Z,13.00
2019-05-25T23:27:30.098Z,13.72
2019-05-25T23:29:59.670Z,13.68
2019-05-25T23:32:28.072Z,13.45
2019-05-25T23:34:56.351Z,14.35
2019-05-25T23:37:24.633Z,14.05
2019-05-25T23:39:53.131Z,13.55
2019-05-25T23:42:21.385Z,13.40
2019-05-25T23:44:49.772Z,13.65
2019-05-25T23:47:18.151Z,14.43
2019-05-25T23:49:46.508Z,14.20
2019-05-25T23:52:14.796Z,14.18
2019-05-25T23:54:43.113Z,13.08
2019-05-25T23:57:11.397Z,13.88
2019-05-25T23:59:39.727Z,14.40
